KHUF/HUF METAR and TAF weather

Enter ICAO airport designator
Station Type Date Time Source
KHUF METAR 2021/08/02 01:53 UTC NOAA

KHUF 020153Z 01006KT 9SM CLR 21/15 A3007 RMK AO2 SLP181 T02060150


Station Type Date Time Source
KHUF Decoded METAR 2021/08/02 01:53 UTC NOAA

TERRE HAUTE INTERNATIONAL -HULMAN FLD, IN, United States (KHUF) 39-27N 087-19W 179M
Aug 01, 2021 - 09:53 PM EDT / 2021.08.02 0153 UTC
Wind: from the N (010 degrees) at 7 MPH (6 KT):0
Visibility: 9 mile(s):0
Sky conditions: clear
Temperature: 69.1 F (20.6 C)
Dew Point: 59.0 F (15.0 C)
Relative Humidity: 70%
Pressure (altimeter): 30.07 in. Hg (1018 hPa)
ob: KHUF 020153Z 01006KT 9SM CLR 21/15 A3007 RMK AO2 SLP181 T02060150
cycle: 2

Station Type Date Time Source
KHUF TAF 2021/08/01 23:21 UTC NOAA

TAF
AMD KHUF 012319Z 0123/0218 01008KT P6SM SCT100
FM020200 02007KT P6SM FEW250
TEMPO 0210/0213 4SM BR
FM021400 05006KT P6SM FEW250

Example: see airport list